sensor_id;sensor_type;location;lat;lon;timestamp;P1;durP1;ratioP1;P2;durP2;ratioP2
21999;SDS011;11164;48.818;2.322;2024-02-26T00:00:27;9.90;;;4.85;;
21999;SDS011;11164;48.818;2.322;2024-02-26T00:02:54;13.15;;;5.07;;
21999;SDS011;11164;48.818;2.322;2024-02-26T00:05:19;10.10;;;4.93;;
21999;SDS011;11164;48.818;2.322;2024-02-26T00:07:44;10.65;;;5.30;;
21999;SDS011;11164;48.818;2.322;2024-02-26T00:10:10;8.73;;;5.00;;
21999;SDS011;11164;48.818;2.322;2024-02-26T00:12:35;9.80;;;4.78;;
21999;SDS011;11164;48.818;2.322;2024-02-26T00:15:01;12.05;;;4.38;;
21999;SDS011;11164;48.818;2.322;2024-02-26T00:17:26;10.05;;;4.82;;
21999;SDS011;11164;48.818;2.322;2024-02-26T00:19:51;7.30;;;4.20;;
21999;SDS011;11164;48.818;2.322;2024-02-26T00:22:18;8.88;;;3.90;;
21999;SDS011;11164;48.818;2.322;2024-02-26T00:24:43;13.27;;;4.78;;
21999;SDS011;11164;48.818;2.322;2024-02-26T00:27:08;10.73;;;4.13;;
21999;SDS011;11164;48.818;2.322;2024-02-26T00:29:34;6.47;;;3.60;;
21999;SDS011;11164;48.818;2.322;2024-02-26T00:31:59;7.60;;;4.13;;
21999;SDS011;11164;48.818;2.322;2024-02-26T00:34:25;6.55;;;3.55;;
21999;SDS011;11164;48.818;2.322;2024-02-26T00:36:50;9.07;;;3.53;;
21999;SDS011;11164;48.818;2.322;2024-02-26T00:39:15;10.48;;;3.53;;
21999;SDS011;11164;48.818;2.322;2024-02-26T00:41:41;8.05;;;3.55;;
21999;SDS011;11164;48.818;2.322;2024-02-26T00:44:06;11.15;;;3.60;;
21999;SDS011;11164;48.818;2.322;2024-02-26T00:46:32;9.05;;;3.55;;
21999;SDS011;11164;48.818;2.322;2024-02-26T00:48:57;9.60;;;3.42;;
21999;SDS011;11164;48.818;2.322;2024-02-26T00:51:23;9.30;;;3.03;;
21999;SDS011;11164;48.818;2.322;2024-02-26T00:53:48;10.93;;;3.38;;
21999;SDS011;11164;48.818;2.322;2024-02-26T00:56:13;9.38;;;2.97;;
21999;SDS011;11164;48.818;2.322;2024-02-26T00:58:39;6.65;;;2.97;;
21999;SDS011;11164;48.818;2.322;2024-02-26T01:01:04;7.60;;;2.97;;
21999;SDS011;11164;48.818;2.322;2024-02-26T01:03:30;8.25;;;3.20;;
21999;SDS011;11164;48.818;2.322;2024-02-26T01:05:55;5.97;;;2.65;;
21999;SDS011;11164;48.818;2.322;2024-02-26T01:08:20;7.20;;;3.00;;
21999;SDS011;11164;48.818;2.322;2024-02-26T01:10:46;8.43;;;2.60;;
21999;SDS011;11164;48.818;2.322;2024-02-26T01:13:11;6.55;;;2.83;;
21999;SDS011;11164;48.818;2.322;2024-02-26T01:15:36;8.70;;;2.60;;
21999;SDS011;11164;48.818;2.322;2024-02-26T01:18:02;7.53;;;2.90;;
21999;SDS011;11164;48.818;2.322;2024-02-26T01:20:34;8.90;;;2.95;;
21999;SDS011;11164;48.818;2.322;2024-02-26T01:22:59;7.47;;;3.03;;
21999;SDS011;11164;48.818;2.322;2024-02-26T01:25:24;9.00;;;2.75;;
21999;SDS011;11164;48.818;2.322;2024-02-26T01:27:50;9.95;;;2.85;;
21999;SDS011;11164;48.818;2.322;2024-02-26T01:30:15;7.32;;;2.42;;
21999;SDS011;11164;48.818;2.322;2024-02-26T01:32:41;13.23;;;3.63;;
21999;SDS011;11164;48.818;2.322;2024-02-26T01:35:07;9.70;;;2.95;;
21999;SDS011;11164;48.818;2.322;2024-02-26T01:37:36;9.25;;;2.65;;
21999;SDS011;11164;48.818;2.322;2024-02-26T01:40:01;7.63;;;3.00;;
21999;SDS011;11164;48.818;2.322;2024-02-26T01:42:29;12.05;;;3.10;;
21999;SDS011;11164;48.818;2.322;2024-02-26T01:44:58;9.75;;;2.70;;
21999;SDS011;11164;48.818;2.322;2024-02-26T01:47:23;8.88;;;2.70;;
21999;SDS011;11164;48.818;2.322;2024-02-26T01:49:50;9.70;;;2.83;;
21999;SDS011;11164;48.818;2.322;2024-02-26T01:52:15;9.20;;;2.63;;
21999;SDS011;11164;48.818;2.322;2024-02-26T01:54:42;10.85;;;2.78;;
21999;SDS011;11164;48.818;2.322;2024-02-26T01:57:10;11.30;;;2.70;;
21999;SDS011;11164;48.818;2.322;2024-02-26T01:59:37;13.32;;;3.17;;
21999;SDS011;11164;48.818;2.322;2024-02-26T02:02:05;8.30;;;2.35;;
21999;SDS011;11164;48.818;2.322;2024-02-26T02:04:33;12.27;;;2.47;;
21999;SDS011;11164;48.818;2.322;2024-02-26T02:07:00;9.52;;;2.47;;
21999;SDS011;11164;48.818;2.322;2024-02-26T02:09:27;8.30;;;2.60;;
21999;SDS011;11164;48.818;2.322;2024-02-26T02:11:53;11.05;;;2.45;;
21999;SDS011;11164;48.818;2.322;2024-02-26T02:14:19;11.38;;;2.50;;
21999;SDS011;11164;48.818;2.322;2024-02-26T02:16:44;14.05;;;2.42;;
21999;SDS011;11164;48.818;2.322;2024-02-26T02:19:10;9.68;;;2.42;;
21999;SDS011;11164;48.818;2.322;2024-02-26T02:21:35;10.55;;;2.28;;
21999;SDS011;11164;48.818;2.322;2024-02-26T02:24:00;9.98;;;2.10;;
21999;SDS011;11164;48.818;2.322;2024-02-26T02:26:26;7.20;;;1.70;;
21999;SDS011;11164;48.818;2.322;2024-02-26T02:28:51;12.13;;;2.90;;
21999;SDS011;11164;48.818;2.322;2024-02-26T02:31:18;7.10;;;2.08;;
21999;SDS011;11164;48.818;2.322;2024-02-26T02:33:43;9.15;;;2.58;;
21999;SDS011;11164;48.818;2.322;2024-02-26T02:36:09;13.80;;;2.70;;
21999;SDS011;11164;48.818;2.322;2024-02-26T02:38:36;14.82;;;2.45;;
21999;SDS011;11164;48.818;2.322;2024-02-26T02:41:02;8.32;;;2.58;;
21999;SDS011;11164;48.818;2.322;2024-02-26T02:43:27;14.20;;;2.53;;
21999;SDS011;11164;48.818;2.322;2024-02-26T02:45:53;13.30;;;2.50;;
21999;SDS011;11164;48.818;2.322;2024-02-26T02:48:18;14.38;;;2.65;;
21999;SDS011;11164;48.818;2.322;2024-02-26T02:50:43;14.25;;;2.50;;
21999;SDS011;11164;48.818;2.322;2024-02-26T02:53:10;11.98;;;2.35;;
21999;SDS011;11164;48.818;2.322;2024-02-26T02:55:35;9.68;;;2.28;;
21999;SDS011;11164;48.818;2.322;2024-02-26T02:58:01;8.98;;;2.80;;
21999;SDS011;11164;48.818;2.322;2024-02-26T03:00:26;14.00;;;2.70;;
21999;SDS011;11164;48.818;2.322;2024-02-26T03:02:51;14.45;;;2.80;;
21999;SDS011;11164;48.818;2.322;2024-02-26T03:05:17;12.55;;;2.42;;
21999;SDS011;11164;48.818;2.322;2024-02-26T03:07:42;13.43;;;2.50;;
21999;SDS011;11164;48.818;2.322;2024-02-26T03:10:08;14.68;;;2.78;;
21999;SDS011;11164;48.818;2.322;2024-02-26T03:12:34;12.50;;;2.45;;
21999;SDS011;11164;48.818;2.322;2024-02-26T03:14:59;14.68;;;2.70;;
21999;SDS011;11164;48.818;2.322;2024-02-26T03:17:30;13.43;;;2.42;;
21999;SDS011;11164;48.818;2.322;2024-02-26T03:19:56;15.05;;;2.63;;
21999;SDS011;11164;48.818;2.322;2024-02-26T03:22:22;10.88;;;2.10;;
21999;SDS011;11164;48.818;2.322;2024-02-26T03:24:47;10.27;;;2.20;;
21999;SDS011;11164;48.818;2.322;2024-02-26T03:27:13;12.40;;;2.50;;
21999;SDS011;11164;48.818;2.322;2024-02-26T03:29:39;11.57;;;2.10;;
21999;SDS011;11164;48.818;2.322;2024-02-26T03:32:05;17.35;;;2.67;;
21999;SDS011;11164;48.818;2.322;2024-02-26T03:34:31;12.20;;;2.28;;
21999;SDS011;11164;48.818;2.322;2024-02-26T03:36:59;12.43;;;1.85;;
21999;SDS011;11164;48.818;2.322;2024-02-26T03:39:25;13.73;;;2.33;;
21999;SDS011;11164;48.818;2.322;2024-02-26T03:41:50;11.93;;;2.58;;
21999;SDS011;11164;48.818;2.322;2024-02-26T03:44:15;14.40;;;2.30;;
21999;SDS011;11164;48.818;2.322;2024-02-26T03:46:41;17.27;;;2.50;;
21999;SDS011;11164;48.818;2.322;2024-02-26T03:49:08;12.05;;;2.53;;
21999;SDS011;11164;48.818;2.322;2024-02-26T03:51:33;13.63;;;2.55;;
21999;SDS011;11164;48.818;2.322;2024-02-26T03:53:58;12.45;;;2.33;;
21999;SDS011;11164;48.818;2.322;2024-02-26T03:56:25;13.50;;;2.30;;
21999;SDS011;11164;48.818;2.322;2024-02-26T03:58:50;16.98;;;2.80;;
21999;SDS011;11164;48.818;2.322;2024-02-26T04:01:16;9.65;;;2.20;;
21999;SDS011;11164;48.818;2.322;2024-02-26T04:03:41;13.93;;;2.55;;
21999;SDS011;11164;48.818;2.322;2024-02-26T04:06:10;15.52;;;2.55;;
21999;SDS011;11164;48.818;2.322;2024-02-26T04:08:36;13.20;;;2.17;;
21999;SDS011;11164;48.818;2.322;2024-02-26T04:11:03;12.48;;;2.42;;
21999;SDS011;11164;48.818;2.322;2024-02-26T04:13:35;11.23;;;2.20;;
21999;SDS011;11164;48.818;2.322;2024-02-26T04:16:03;10.90;;;2.58;;
21999;SDS011;11164;48.818;2.322;2024-02-26T04:18:29;13.05;;;2.15;;
21999;SDS011;11164;48.818;2.322;2024-02-26T04:20:55;12.80;;;1.95;;
21999;SDS011;11164;48.818;2.322;2024-02-26T04:23:21;13.63;;;1.80;;
21999;SDS011;11164;48.818;2.322;2024-02-26T04:25:47;11.35;;;1.92;;
21999;SDS011;11164;48.818;2.322;2024-02-26T04:28:13;11.20;;;2.13;;
21999;SDS011;11164;48.818;2.322;2024-02-26T04:30:38;14.30;;;2.47;;
21999;SDS011;11164;48.818;2.322;2024-02-26T04:33:04;10.25;;;2.22;;
21999;SDS011;11164;48.818;2.322;2024-02-26T04:35:30;12.13;;;2.72;;
21999;SDS011;11164;48.818;2.322;2024-02-26T04:37:55;13.20;;;2.55;;
21999;SDS011;11164;48.818;2.322;2024-02-26T04:40:21;9.05;;;1.80;;
21999;SDS011;11164;48.818;2.322;2024-02-26T04:42:46;10.15;;;2.47;;
21999;SDS011;11164;48.818;2.322;2024-02-26T04:45:11;12.38;;;2.42;;
21999;SDS011;11164;48.818;2.322;2024-02-26T04:47:37;15.38;;;2.38;;
21999;SDS011;11164;48.818;2.322;2024-02-26T04:50:02;13.75;;;2.10;;
21999;SDS011;11164;48.818;2.322;2024-02-26T04:52:28;12.38;;;2.58;;
21999;SDS011;11164;48.818;2.322;2024-02-26T04:54:53;15.13;;;2.45;;
21999;SDS011;11164;48.818;2.322;2024-02-26T04:57:19;10.65;;;1.90;;
21999;SDS011;11164;48.818;2.322;2024-02-26T04:59:46;16.55;;;2.42;;
21999;SDS011;11164;48.818;2.322;2024-02-26T05:02:11;13.93;;;2.15;;
21999;SDS011;11164;48.818;2.322;2024-02-26T05:04:37;12.68;;;2.35;;
21999;SDS011;11164;48.818;2.322;2024-02-26T05:07:03;11.15;;;2.13;;
21999;SDS011;11164;48.818;2.322;2024-02-26T05:09:28;9.05;;;2.13;;
21999;SDS011;11164;48.818;2.322;2024-02-26T05:11:54;16.55;;;2.35;;
21999;SDS011;11164;48.818;2.322;2024-02-26T05:14:19;9.38;;;2.00;;
21999;SDS011;11164;48.818;2.322;2024-02-26T05:16:45;15.48;;;2.20;;
21999;SDS011;11164;48.818;2.322;2024-02-26T05:19:10;12.23;;;1.95;;
21999;SDS011;11164;48.818;2.322;2024-02-26T05:21:36;10.30;;;2.05;;
21999;SDS011;11164;48.818;2.322;2024-02-26T05:24:01;17.00;;;2.80;;
21999;SDS011;11164;48.818;2.322;2024-02-26T05:26:27;12.63;;;2.35;;
21999;SDS011;11164;48.818;2.322;2024-02-26T05:28:52;10.35;;;2.15;;
21999;SDS011;11164;48.818;2.322;2024-02-26T05:31:18;13.95;;;2.22;;
21999;SDS011;11164;48.818;2.322;2024-02-26T05:33:43;12.93;;;2.35;;
21999;SDS011;11164;48.818;2.322;2024-02-26T05:36:09;14.50;;;2.65;;
21999;SDS011;11164;48.818;2.322;2024-02-26T05:38:35;14.55;;;2.30;;
21999;SDS011;11164;48.818;2.322;2024-02-26T05:41:00;10.73;;;2.10;;
21999;SDS011;11164;48.818;2.322;2024-02-26T05:43:26;12.40;;;2.33;;
21999;SDS011;11164;48.818;2.322;2024-02-26T05:45:52;11.02;;;2.22;;
21999;SDS011;11164;48.818;2.322;2024-02-26T05:48:17;12.40;;;2.25;;
21999;SDS011;11164;48.818;2.322;2024-02-26T05:50:44;13.52;;;2.47;;
21999;SDS011;11164;48.818;2.322;2024-02-26T05:53:12;15.85;;;2.75;;
21999;SDS011;11164;48.818;2.322;2024-02-26T05:55:38;11.38;;;2.20;;
21999;SDS011;11164;48.818;2.322;2024-02-26T05:58:04;12.15;;;2.35;;
21999;SDS011;11164;48.818;2.322;2024-02-26T06:00:30;16.88;;;2.60;;
21999;SDS011;11164;48.818;2.322;2024-02-26T06:02:55;10.55;;;2.30;;
21999;SDS011;11164;48.818;2.322;2024-02-26T06:05:20;10.48;;;1.90;;
21999;SDS011;11164;48.818;2.322;2024-02-26T06:07:46;16.40;;;3.40;;
21999;SDS011;11164;48.818;2.322;2024-02-26T06:10:11;11.77;;;2.50;;
21999;SDS011;11164;48.818;2.322;2024-02-26T06:12:38;16.55;;;2.65;;
21999;SDS011;11164;48.818;2.322;2024-02-26T06:15:05;9.95;;;2.67;;
21999;SDS011;11164;48.818;2.322;2024-02-26T06:17:31;12.50;;;2.80;;
21999;SDS011;11164;48.818;2.322;2024-02-26T06:19:56;11.90;;;2.88;;
21999;SDS011;11164;48.818;2.322;2024-02-26T06:22:24;18.38;;;3.28;;
21999;SDS011;11164;48.818;2.322;2024-02-26T06:24:49;13.45;;;2.85;;
21999;SDS011;11164;48.818;2.322;2024-02-26T06:27:15;13.27;;;3.42;;
21999;SDS011;11164;48.818;2.322;2024-02-26T06:29:40;15.60;;;3.00;;
21999;SDS011;11164;48.818;2.322;2024-02-26T06:32:06;12.85;;;3.40;;
21999;SDS011;11164;48.818;2.322;2024-02-26T06:34:31;17.88;;;4.18;;
21999;SDS011;11164;48.818;2.322;2024-02-26T06:36:56;19.70;;;3.58;;
21999;SDS011;11164;48.818;2.322;2024-02-26T06:39:22;16.90;;;3.65;;
21999;SDS011;11164;48.818;2.322;2024-02-26T06:41:47;17.13;;;3.70;;
21999;SDS011;11164;48.818;2.322;2024-02-26T06:44:13;14.43;;;3.53;;
21999;SDS011;11164;48.818;2.322;2024-02-26T06:46:38;19.17;;;4.15;;
21999;SDS011;11164;48.818;2.322;2024-02-26T06:49:04;13.82;;;3.88;;
21999;SDS011;11164;48.818;2.322;2024-02-26T06:51:30;13.43;;;4.07;;
21999;SDS011;11164;48.818;2.322;2024-02-26T06:53:55;15.80;;;4.20;;
21999;SDS011;11164;48.818;2.322;2024-02-26T06:56:21;16.50;;;3.95;;
21999;SDS011;11164;48.818;2.322;2024-02-26T06:58:46;13.25;;;3.63;;
21999;SDS011;11164;48.818;2.322;2024-02-26T07:01:12;14.20;;;3.90;;
21999;SDS011;11164;48.818;2.322;2024-02-26T07:03:37;15.00;;;4.18;;
21999;SDS011;11164;48.818;2.322;2024-02-26T07:06:05;15.88;;;3.78;;
21999;SDS011;11164;48.818;2.322;2024-02-26T07:08:30;13.05;;;4.55;;
21999;SDS011;11164;48.818;2.322;2024-02-26T07:10:56;15.60;;;3.92;;
21999;SDS011;11164;48.818;2.322;2024-02-26T07:13:21;16.15;;;4.75;;
21999;SDS011;11164;48.818;2.322;2024-02-26T07:15:46;22.67;;;4.45;;
21999;SDS011;11164;48.818;2.322;2024-02-26T07:18:12;16.42;;;4.15;;
21999;SDS011;11164;48.818;2.322;2024-02-26T07:20:37;20.95;;;4.03;;
21999;SDS011;11164;48.818;2.322;2024-02-26T07:23:02;14.80;;;4.05;;
21999;SDS011;11164;48.818;2.322;2024-02-26T07:25:28;14.93;;;3.88;;
21999;SDS011;11164;48.818;2.322;2024-02-26T07:27:53;12.50;;;3.80;;
21999;SDS011;11164;48.818;2.322;2024-02-26T07:30:19;22.60;;;7.85;;
21999;SDS011;11164;48.818;2.322;2024-02-26T07:32:44;16.08;;;3.42;;
21999;SDS011;11164;48.818;2.322;2024-02-26T07:35:09;13.68;;;3.30;;
21999;SDS011;11164;48.818;2.322;2024-02-26T07:37:35;14.55;;;3.53;;
21999;SDS011;11164;48.818;2.322;2024-02-26T07:40:00;13.88;;;3.17;;
21999;SDS011;11164;48.818;2.322;2024-02-26T07:42:26;13.40;;;3.13;;
21999;SDS011;11164;48.818;2.322;2024-02-26T07:44:51;13.57;;;3.63;;
21999;SDS011;11164;48.818;2.322;2024-02-26T07:47:17;13.85;;;3.90;;
21999;SDS011;11164;48.818;2.322;2024-02-26T07:49:43;14.93;;;3.65;;
21999;SDS011;11164;48.818;2.322;2024-02-26T07:52:08;16.60;;;4.05;;
21999;SDS011;11164;48.818;2.322;2024-02-26T07:54:34;13.93;;;3.50;;
21999;SDS011;11164;48.818;2.322;2024-02-26T07:56:59;16.65;;;3.67;;
21999;SDS011;11164;48.818;2.322;2024-02-26T07:59:24;12.50;;;3.85;;
21999;SDS011;11164;48.818;2.322;2024-02-26T08:01:50;16.73;;;4.60;;
21999;SDS011;11164;48.818;2.322;2024-02-26T08:04:16;11.52;;;4.13;;
21999;SDS011;11164;48.818;2.322;2024-02-26T08:06:41;15.43;;;3.95;;
21999;SDS011;11164;48.818;2.322;2024-02-26T08:09:08;15.82;;;3.92;;
21999;SDS011;11164;48.818;2.322;2024-02-26T08:11:33;15.25;;;4.43;;
21999;SDS011;11164;48.818;2.322;2024-02-26T08:13:59;12.90;;;3.63;;
21999;SDS011;11164;48.818;2.322;2024-02-26T08:16:24;10.82;;;3.97;;
21999;SDS011;11164;48.818;2.322;2024-02-26T08:18:50;12.93;;;4.38;;
21999;SDS011;11164;48.818;2.322;2024-02-26T08:21:15;17.25;;;4.15;;
21999;SDS011;11164;48.818;2.322;2024-02-26T08:23:40;14.77;;;4.35;;
21999;SDS011;11164;48.818;2.322;2024-02-26T08:26:07;13.63;;;4.63;;
21999;SDS011;11164;48.818;2.322;2024-02-26T08:28:36;12.55;;;5.10;;
21999;SDS011;11164;48.818;2.322;2024-02-26T08:31:04;15.77;;;4.40;;
21999;SDS011;11164;48.818;2.322;2024-02-26T08:33:30;13.27;;;4.30;;
21999;SDS011;11164;48.818;2.322;2024-02-26T08:35:55;14.20;;;4.47;;
21999;SDS011;11164;48.818;2.322;2024-02-26T08:38:21;14.63;;;4.70;;
21999;SDS011;11164;48.818;2.322;2024-02-26T08:40:47;12.98;;;4.30;;
21999;SDS011;11164;48.818;2.322;2024-02-26T08:43:13;14.65;;;5.00;;
21999;SDS011;11164;48.818;2.322;2024-02-26T08:45:38;17.25;;;5.68;;
21999;SDS011;11164;48.818;2.322;2024-02-26T08:48:04;12.38;;;5.25;;
21999;SDS011;11164;48.818;2.322;2024-02-26T08:50:30;19.65;;;5.85;;
21999;SDS011;11164;48.818;2.322;2024-02-26T08:52:55;18.65;;;6.50;;
21999;SDS011;11164;48.818;2.322;2024-02-26T08:55:21;16.25;;;5.30;;
21999;SDS011;11164;48.818;2.322;2024-02-26T08:57:46;15.93;;;5.80;;
21999;SDS011;11164;48.818;2.322;2024-02-26T09:00:12;12.60;;;5.00;;
21999;SDS011;11164;48.818;2.322;2024-02-26T09:02:39;14.27;;;5.50;;
21999;SDS011;11164;48.818;2.322;2024-02-26T09:05:05;18.88;;;5.65;;
21999;SDS011;11164;48.818;2.322;2024-02-26T09:07:31;16.15;;;5.55;;
21999;SDS011;11164;48.818;2.322;2024-02-26T09:09:56;17.08;;;5.18;;
21999;SDS011;11164;48.818;2.322;2024-02-26T09:12:21;12.77;;;5.00;;
21999;SDS011;11164;48.818;2.322;2024-02-26T09:14:47;14.10;;;4.75;;
21999;SDS011;11164;48.818;2.322;2024-02-26T09:17:12;11.18;;;4.35;;
21999;SDS011;11164;48.818;2.322;2024-02-26T09:19:38;10.85;;;3.47;;
21999;SDS011;11164;48.818;2.322;2024-02-26T09:22:03;10.18;;;3.50;;
21999;SDS011;11164;48.818;2.322;2024-02-26T09:24:29;12.50;;;3.55;;
21999;SDS011;11164;48.818;2.322;2024-02-26T09:26:54;10.73;;;3.53;;
21999;SDS011;11164;48.818;2.322;2024-02-26T09:29:20;14.93;;;4.00;;
21999;SDS011;11164;48.818;2.322;2024-02-26T09:31:45;13.60;;;4.47;;
21999;SDS011;11164;48.818;2.322;2024-02-26T09:34:12;13.20;;;4.18;;
21999;SDS011;11164;48.818;2.322;2024-02-26T09:36:38;13.50;;;5.50;;
21999;SDS011;11164;48.818;2.322;2024-02-26T09:39:03;11.63;;;4.55;;
21999;SDS011;11164;48.818;2.322;2024-02-26T09:41:28;11.13;;;4.07;;
21999;SDS011;11164;48.818;2.322;2024-02-26T09:43:55;10.00;;;3.40;;
21999;SDS011;11164;48.818;2.322;2024-02-26T09:46:22;10.05;;;3.42;;
21999;SDS011;11164;48.818;2.322;2024-02-26T09:48:51;10.18;;;3.88;;
21999;SDS011;11164;48.818;2.322;2024-02-26T09:51:16;11.65;;;3.30;;
21999;SDS011;11164;48.818;2.322;2024-02-26T09:53:43;11.82;;;3.10;;
21999;SDS011;11164;48.818;2.322;2024-02-26T09:56:11;12.27;;;3.58;;
21999;SDS011;11164;48.818;2.322;2024-02-26T09:58:37;12.77;;;3.75;;
21999;SDS011;11164;48.818;2.322;2024-02-26T10:01:04;9.52;;;4.22;;
21999;SDS011;11164;48.818;2.322;2024-02-26T10:06:05;8.05;;;3.10;;
21999;SDS011;11164;48.818;2.322;2024-02-26T10:08:34;11.63;;;3.42;;
21999;SDS011;11164;48.818;2.322;2024-02-26T10:11:00;8.38;;;3.00;;
21999;SDS011;11164;48.818;2.322;2024-02-26T10:13:26;7.82;;;3.28;;
21999;SDS011;11164;48.818;2.322;2024-02-26T10:15:51;9.13;;;3.03;;
21999;SDS011;11164;48.818;2.322;2024-02-26T10:18:17;10.30;;;3.55;;
21999;SDS011;11164;48.818;2.322;2024-02-26T10:20:42;9.90;;;3.40;;
21999;SDS011;11164;48.818;2.322;2024-02-26T10:23:25;12.50;;;3.35;;
21999;SDS011;11164;48.818;2.322;2024-02-26T10:25:54;8.10;;;3.10;;
21999;SDS011;11164;48.818;2.322;2024-02-26T10:28:20;9.00;;;2.60;;
21999;SDS011;11164;48.818;2.322;2024-02-26T10:30:46;11.95;;;3.13;;
21999;SDS011;11164;48.818;2.322;2024-02-26T10:33:11;8.30;;;2.80;;
21999;SDS011;11164;48.818;2.322;2024-02-26T10:35:38;10.48;;;2.60;;
21999;SDS011;11164;48.818;2.322;2024-02-26T10:38:05;8.10;;;2.53;;
21999;SDS011;11164;48.818;2.322;2024-02-26T10:40:32;10.52;;;2.70;;
21999;SDS011;11164;48.818;2.322;2024-02-26T10:42:57;9.88;;;2.70;;
21999;SDS011;11164;48.818;2.322;2024-02-26T10:45:23;8.15;;;2.15;;
21999;SDS011;11164;48.818;2.322;2024-02-26T10:47:48;7.03;;;2.50;;
21999;SDS011;11164;48.818;2.322;2024-02-26T10:50:14;6.57;;;2.70;;
21999;SDS011;11164;48.818;2.322;2024-02-26T10:52:41;8.43;;;2.83;;
21999;SDS011;11164;48.818;2.322;2024-02-26T10:55:07;10.60;;;2.78;;
21999;SDS011;11164;48.818;2.322;2024-02-26T10:57:39;8.18;;;2.60;;
21999;SDS011;11164;48.818;2.322;2024-02-26T11:00:06;8.45;;;2.47;;
21999;SDS011;11164;48.818;2.322;2024-02-26T11:02:32;7.88;;;2.35;;
21999;SDS011;11164;48.818;2.322;2024-02-26T11:05:04;5.85;;;2.45;;
21999;SDS011;11164;48.818;2.322;2024-02-26T11:07:31;6.90;;;2.28;;
21999;SDS011;11164;48.818;2.322;2024-02-26T11:09:58;5.72;;;2.17;;
21999;SDS011;11164;48.818;2.322;2024-02-26T11:12:24;5.75;;;2.00;;
21999;SDS011;11164;48.818;2.322;2024-02-26T11:14:51;5.93;;;1.92;;
21999;SDS011;11164;48.818;2.322;2024-02-26T11:17:20;6.53;;;2.15;;
21999;SDS011;11164;48.818;2.322;2024-02-26T11:19:47;7.18;;;2.60;;
21999;SDS011;11164;48.818;2.322;2024-02-26T11:22:14;5.10;;;2.10;;
21999;SDS011;11164;48.818;2.322;2024-02-26T11:24:40;4.22;;;1.73;;
21999;SDS011;11164;48.818;2.322;2024-02-26T11:27:07;5.53;;;1.80;;
21999;SDS011;11164;48.818;2.322;2024-02-26T11:29:43;6.53;;;1.90;;
21999;SDS011;11164;48.818;2.322;2024-02-26T11:32:12;4.10;;;1.58;;
21999;SDS011;11164;48.818;2.322;2024-02-26T11:34:38;5.00;;;1.90;;
21999;SDS011;11164;48.818;2.322;2024-02-26T11:37:13;6.28;;;1.80;;
21999;SDS011;11164;48.818;2.322;2024-02-26T11:39:42;3.47;;;1.50;;
21999;SDS011;11164;48.818;2.322;2024-02-26T11:42:10;4.90;;;1.90;;
21999;SDS011;11164;48.818;2.322;2024-02-26T11:44:39;5.22;;;1.38;;
21999;SDS011;11164;48.818;2.322;2024-02-26T11:47:13;7.15;;;2.10;;
21999;SDS011;11164;48.818;2.322;2024-02-26T11:49:42;4.57;;;2.10;;
21999;SDS011;11164;48.818;2.322;2024-02-26T11:52:08;5.93;;;2.90;;
21999;SDS011;11164;48.818;2.322;2024-02-26T11:54:44;5.18;;;2.72;;
21999;SDS011;11164;48.818;2.322;2024-02-26T12:05:23;4.15;;;2.13;;
21999;SDS011;11164;48.818;2.322;2024-02-26T12:07:55;4.25;;;2.13;;
21999;SDS011;11164;48.818;2.322;2024-02-26T12:10:31;4.32;;;2.22;;
21999;SDS011;11164;48.818;2.322;2024-02-26T12:13:02;5.45;;;2.40;;
21999;SDS011;11164;48.818;2.322;2024-02-26T12:15:42;3.85;;;1.90;;
21999;SDS011;11164;48.818;2.322;2024-02-26T12:18:09;4.35;;;1.73;;
21999;SDS011;11164;48.818;2.322;2024-02-26T12:20:36;4.95;;;2.20;;
21999;SDS011;11164;48.818;2.322;2024-02-26T12:23:02;6.13;;;2.60;;
21999;SDS011;11164;48.818;2.322;2024-02-26T12:25:31;5.22;;;2.58;;
21999;SDS011;11164;48.818;2.322;2024-02-26T12:27:58;4.75;;;2.60;;
21999;SDS011;11164;48.818;2.322;2024-02-26T12:30:24;6.25;;;2.88;;
21999;SDS011;11164;48.818;2.322;2024-02-26T12:32:54;3.70;;;1.92;;
21999;SDS011;11164;48.818;2.322;2024-02-26T12:35:25;6.22;;;2.63;;
21999;SDS011;11164;48.818;2.322;2024-02-26T12:37:52;5.18;;;2.70;;
21999;SDS011;11164;48.818;2.322;2024-02-26T12:40:18;5.00;;;2.83;;
21999;SDS011;11164;48.818;2.322;2024-02-26T12:42:44;4.40;;;2.40;;
21999;SDS011;11164;48.818;2.322;2024-02-26T12:45:10;3.92;;;1.98;;
21999;SDS011;11164;48.818;2.322;2024-02-26T12:47:40;4.97;;;2.33;;
21999;SDS011;11164;48.818;2.322;2024-02-26T12:50:08;4.00;;;2.28;;
21999;SDS011;11164;48.818;2.322;2024-02-26T12:52:35;6.35;;;2.30;;
21999;SDS011;11164;48.818;2.322;2024-02-26T12:55:03;5.43;;;2.67;;
21999;SDS011;11164;48.818;2.322;2024-02-26T12:57:30;6.50;;;2.55;;
21999;SDS011;11164;48.818;2.322;2024-02-26T12:59:58;4.28;;;2.33;;
21999;SDS011;11164;48.818;2.322;2024-02-26T13:02:24;4.47;;;2.22;;
21999;SDS011;11164;48.818;2.322;2024-02-26T13:04:50;4.55;;;2.10;;
21999;SDS011;11164;48.818;2.322;2024-02-26T13:07:16;4.43;;;2.70;;
21999;SDS011;11164;48.818;2.322;2024-02-26T13:09:41;3.85;;;2.20;;
21999;SDS011;11164;48.818;2.322;2024-02-26T13:12:07;4.15;;;2.25;;
21999;SDS011;11164;48.818;2.322;2024-02-26T13:14:33;5.00;;;2.40;;
21999;SDS011;11164;48.818;2.322;2024-02-26T13:16:59;4.07;;;1.98;;
21999;SDS011;11164;48.818;2.322;2024-02-26T13:19:25;3.80;;;2.08;;
21999;SDS011;11164;48.818;2.322;2024-02-26T13:21:52;4.68;;;2.50;;
21999;SDS011;11164;48.818;2.322;2024-02-26T13:24:19;5.97;;;2.40;;
21999;SDS011;11164;48.818;2.322;2024-02-26T13:26:45;4.63;;;2.55;;
21999;SDS011;11164;48.818;2.322;2024-02-26T13:29:16;4.20;;;1.95;;
21999;SDS011;11164;48.818;2.322;2024-02-26T13:31:44;3.92;;;1.92;;
21999;SDS011;11164;48.818;2.322;2024-02-26T13:34:10;4.10;;;2.00;;
21999;SDS011;11164;48.818;2.322;2024-02-26T13:36:35;4.47;;;2.40;;
21999;SDS011;11164;48.818;2.322;2024-02-26T13:39:01;4.70;;;2.47;;
21999;SDS011;11164;48.818;2.322;2024-02-26T13:41:29;5.63;;;2.38;;
21999;SDS011;11164;48.818;2.322;2024-02-26T13:43:55;4.18;;;1.92;;
21999;SDS011;11164;48.818;2.322;2024-02-26T13:46:22;4.85;;;2.05;;
21999;SDS011;11164;48.818;2.322;2024-02-26T13:48:48;4.38;;;2.40;;
21999;SDS011;11164;48.818;2.322;2024-02-26T13:51:13;4.72;;;2.08;;
21999;SDS011;11164;48.818;2.322;2024-02-26T13:53:38;3.58;;;2.10;;
21999;SDS011;11164;48.818;2.322;2024-02-26T13:56:04;5.07;;;2.78;;
21999;SDS011;11164;48.818;2.322;2024-02-26T13:58:30;5.10;;;2.55;;
21999;SDS011;11164;48.818;2.322;2024-02-26T14:00:56;6.45;;;3.03;;
21999;SDS011;11164;48.818;2.322;2024-02-26T14:03:21;5.63;;;1.80;;
21999;SDS011;11164;48.818;2.322;2024-02-26T14:05:47;4.28;;;1.90;;
21999;SDS011;11164;48.818;2.322;2024-02-26T14:08:13;4.97;;;2.28;;
21999;SDS011;11164;48.818;2.322;2024-02-26T14:10:38;4.38;;;2.05;;
21999;SDS011;11164;48.818;2.322;2024-02-26T14:13:04;4.80;;;2.33;;
21999;SDS011;11164;48.818;2.322;2024-02-26T14:15:29;3.53;;;1.77;;
21999;SDS011;11164;48.818;2.322;2024-02-26T14:17:55;3.72;;;1.90;;
21999;SDS011;11164;48.818;2.322;2024-02-26T14:20:24;3.47;;;1.67;;
21999;SDS011;11164;48.818;2.322;2024-02-26T14:22:50;4.03;;;1.95;;
21999;SDS011;11164;48.818;2.322;2024-02-26T14:25:20;3.80;;;2.03;;
21999;SDS011;11164;48.818;2.322;2024-02-26T14:27:46;4.05;;;1.63;;
21999;SDS011;11164;48.818;2.322;2024-02-26T14:30:12;4.63;;;1.60;;
21999;SDS011;11164;48.818;2.322;2024-02-26T14:32:38;4.50;;;2.33;;
21999;SDS011;11164;48.818;2.322;2024-02-26T14:35:07;4.10;;;2.28;;
21999;SDS011;11164;48.818;2.322;2024-02-26T14:37:34;4.03;;;1.75;;
21999;SDS011;11164;48.818;2.322;2024-02-26T14:40:00;3.72;;;1.75;;
21999;SDS011;11164;48.818;2.322;2024-02-26T14:42:25;2.90;;;1.60;;
21999;SDS011;11164;48.818;2.322;2024-02-26T14:44:50;3.40;;;1.80;;